Time;durP1;ratioP1;P1;durP2;ratioP2;P2;SDS_P1;SDS_P2;PMS_P1;PMS_P2;Temp;Humidity;BMP_temperature;BMP_pressure;BME280_temperature;BME280_humidity;BME280_pressure;Samples;Min_cycle;Max_cycle;Signal;HPM_P1;HPM_P2
2022/09/18 00:01:42;;;;;;;6.93;1.00;;;;;;;12.56;77.15;101548.47;6114652;23;20005;-92
2022/09/18 00:04:12;;;;;;;6.05;1.20;;;;;;;12.56;77.31;101556.44;6115336;23;20558;-91
2022/09/18 00:06:39;;;;;;;7.07;1.58;;;;;;;12.49;77.48;101548.69;6116004;23;20005;-90
2022/09/18 00:09:08;;;;;;;5.38;0.82;;;;;;;12.49;77.35;101553.13;6115556;23;20343;-90
2022/09/18 00:11:37;;;;;;;5.57;1.58;;;;;;;12.42;77.93;101531.28;6115034;23;20020;-89
2022/09/18 00:14:05;;;;;;;4.38;1.15;;;;;;;12.43;78.49;101537.44;6115974;23;20006;-91
2022/09/18 00:16:30;;;;;;;3.80;1.17;;;;;;;12.31;78.58;101527.28;6116236;23;20030;-89
2022/09/18 00:18:55;;;;;;;1.75;1.25;;;;;;;12.43;78.46;101538.31;6115068;23;20006;-90
2022/09/18 00:21:23;;;;;;;7.40;3.00;;;;;;;12.43;78.66;101534.78;6115882;23;20017;-90
2022/09/18 00:23:50;;;;;;;3.00;1.45;;;;;;;12.44;78.71;101537.38;6118785;23;20608;-91
2022/09/18 00:26:17;;;;;;;5.65;1.92;;;;;;;12.47;78.84;101539.06;6117599;23;20006;-90
2022/09/18 00:28:44;;;;;;;3.42;2.25;;;;;;;12.41;79.12;101534.00;6117820;23;20029;-90
2022/09/18 00:31:12;;;;;;;3.13;1.90;;;;;;;12.29;79.46;101532.66;6117231;23;20012;-90
2022/09/18 00:33:38;;;;;;;7.28;2.03;;;;;;;12.39;79.29;101541.13;6120027;23;20010;-90
2022/09/18 00:36:06;;;;;;;3.63;1.83;;;;;;;12.35;79.45;101524.47;6121066;23;20315;-90
2022/09/18 00:38:32;;;;;;;10.38;2.40;;;;;;;12.40;78.96;101529.59;6119437;23;20489;-91
2022/09/18 00:40:59;;;;;;;5.63;2.28;;;;;;;12.38;79.51;101529.66;6122448;23;20016;-90
2022/09/18 00:43:28;;;;;;;6.20;2.45;;;;;;;12.44;79.14;101539.16;6143484;23;20002;-91
2022/09/18 00:46:04;;;;;;;3.67;1.70;;;;;;;12.45;79.18;101536.47;6119750;23;20014;-90
2022/09/18 00:48:42;;;;;;;5.43;1.90;;;;;;;12.50;78.59;101545.13;6118418;23;20097;-90
2022/09/18 00:51:08;;;;;;;4.82;1.90;;;;;;;12.45;79.00;101536.47;6121259;23;20449;-91
2022/09/18 00:53:39;;;;;;;6.20;2.15;;;;;;;12.41;79.23;101529.56;6117690;23;20013;-90
2022/09/18 00:56:07;;;;;;;3.08;1.90;;;;;;;12.48;79.35;101543.44;6119698;23;20052;-91
2022/09/18 00:58:32;;;;;;;3.97;1.80;;;;;;;12.42;80.14;101533.94;6115952;23;20453;-91
2022/09/18 01:00:58;;;;;;;3.80;1.75;;;;;;;12.40;79.45;101540.19;6120886;23;20001;-91
2022/09/18 01:03:23;;;;;;;6.05;1.70;;;;;;;12.41;79.02;101545.47;6117909;23;20409;-91
2022/09/18 01:06:15;;;;;;;4.80;1.77;;;;;;;12.48;79.14;101554.91;6119106;23;20010;-90
2022/09/18 01:08:54;;;;;;;6.72;2.10;;;;;;;12.43;79.82;101538.31;6117146;23;20002;-91
2022/09/18 01:11:25;;;;;;;3.70;1.42;;;;;;;12.43;79.27;101551.56;6119257;23;20009;-91
2022/09/18 01:14:00;;;;;;;5.35;1.70;;;;;;;12.48;79.33;101546.97;6120396;23;20085;-91
2022/09/18 01:16:49;;;;;;;3.75;1.60;;;;;;;12.45;79.05;101546.19;6118344;23;20009;-91
2022/09/18 01:20:00;;;;;;;4.85;2.00;;;;;;;12.54;79.21;101563.56;6120304;23;20005;-91
2022/09/18 01:23:04;;;;;;;5.35;2.10;;;;;;;12.52;78.93;101560.97;6117551;23;20005;-91
2022/09/18 01:25:42;;;;;;;3.92;1.80;;;;;;;12.43;80.39;101553.34;6029381;23;20339;-92
2022/09/18 01:28:19;;;;;;;2.53;1.70;;;;;;;12.40;80.42;101537.53;6006797;23;20015;-92
2022/09/18 01:30:48;;;;;;;5.38;1.83;;;;;;;12.32;80.18;101540.50;6084755;23;20010;-92
2022/09/18 01:33:24;;;;;;;7.90;2.10;;;;;;;12.27;80.44;101531.84;6120691;23;20426;-92
2022/09/18 01:35:52;;;;;;;7.93;1.70;;;;;;;12.35;80.61;101545.66;6118197;23;20254;-92
2022/09/18 01:38:56;;;;;;;4.57;1.50;;;;;;;12.37;80.36;101543.00;6119170;23;20052;-92
2022/09/18 01:41:24;;;;;;;5.90;1.75;;;;;;;12.39;79.80;101542.00;6029900;23;20014;-91
2022/09/18 01:43:57;;;;;;;4.50;1.80;;;;;;;12.34;80.20;101533.34;6103521;23;20489;-93
2022/09/18 01:46:24;;;;;;;4.32;1.10;;;;;;;12.35;79.35;101535.06;6120537;23;20009;-91
2022/09/18 01:49:12;;;;;;;3.78;1.30;;;;;;;12.33;80.03;101541.38;6119660;23;20006;-94
2022/09/18 01:51:45;;;;;;;3.15;1.40;;;;;;;12.27;79.50;101520.38;6120111;23;20430;-92
2022/09/18 01:54:16;;;;;;;6.15;1.52;;;;;;;12.32;80.07;101527.25;6118900;23;20013;-92
2022/09/18 01:56:54;;;;;;;3.85;1.90;;;;;;;12.32;80.28;101531.69;6118718;23;20012;-92
2022/09/18 01:59:37;;;;;;;5.63;1.80;;;;;;;12.30;79.71;101522.91;6114641;23;20018;-92
2022/09/18 02:02:15;;;;;;;5.05;1.75;;;;;;;12.20;79.84;101511.78;6119612;23;20006;-92
2022/09/18 02:04:44;;;;;;;2.75;1.80;;;;;;;12.16;80.12;101513.66;6095175;23;20392;-92
2022/09/18 02:07:20;;;;;;;3.75;2.10;;;;;;;12.22;80.25;101521.41;6118957;23;20362;-92
2022/09/18 02:09:46;;;;;;;5.60;2.30;;;;;;;12.25;80.14;101529.22;6117521;23;20066;-92
2022/09/18 02:12:18;;;;;;;3.97;2.20;;;;;;;12.30;79.94;101523.75;6119508;23;20449;-92
2022/09/18 02:14:51;;;;;;;4.95;2.28;;;;;;;12.37;80.10;101527.06;6117931;23;20006;-93
2022/09/18 02:17:26;;;;;;;3.97;2.53;;;;;;;12.30;80.86;101513.16;6119124;23;20002;-93
2022/09/18 02:20:25;;;;;;;5.03;2.63;;;;;;;12.37;79.79;101519.13;6117304;23;20010;-92
2022/09/18 02:22:54;;;;;;;6.20;2.70;;;;;;;12.37;80.22;101521.78;6111478;23;20446;-91
2022/09/18 02:25:26;;;;;;;6.95;3.65;;;;;;;12.27;80.75;101494.72;6118528;23;20022;-92
2022/09/18 02:27:53;;;;;;;4.40;2.30;;;;;;;12.29;81.13;101507.94;6117290;23;20265;-92
2022/09/18 02:30:19;;;;;;;4.93;2.60;;;;;;;12.28;80.90;101495.59;6116966;23;20006;-92
2022/09/18 02:32:45;;;;;;;6.35;2.95;;;;;;;12.20;81.21;101491.41;6118174;23;20343;-92
2022/09/18 02:35:12;;;;;;;4.03;2.58;;;;;;;12.27;81.62;101501.81;6117466;23;20009;-92
2022/09/18 02:37:43;;;;;;;5.55;2.90;;;;;;;12.32;81.48;101502.53;6116791;23;20006;-92
2022/09/18 02:40:15;;;;;;;6.45;2.70;;;;;;;12.33;81.78;101505.09;6117989;23;20383;-92
2022/09/18 02:43:16;;;;;;;7.37;2.93;;;;;;;12.36;81.02;101499.69;6116938;23;20038;-92
2022/09/18 02:46:00;;;;;;;5.95;2.50;;;;;;;12.27;81.29;101483.28;6119615;23;20080;-92
2022/09/18 02:48:48;;;;;;;6.43;2.47;;;;;;;12.33;81.42;101498.94;6115400;23;20002;-92
2022/09/18 02:51:19;;;;;;;3.35;2.40;;;;;;;12.30;81.24;101499.03;6116782;23;20489;-92
2022/09/18 02:54:06;;;;;;;5.70;2.38;;;;;;;12.32;81.34;101503.38;6118407;23;20010;-92
2022/09/18 02:56:37;;;;;;;6.28;2.30;;;;;;;12.19;81.44;101487.06;6115010;23;20062;-92
2022/09/18 02:59:24;;;;;;;6.78;2.15;;;;;;;12.26;81.42;101503.59;6117177;23;20009;-92
2022/09/18 03:01:51;;;;;;;6.40;2.25;;;;;;;12.25;81.49;101491.25;6116398;23;20038;-92
2022/09/18 03:04:21;;;;;;;8.88;2.35;;;;;;;12.18;82.09;101482.69;6117146;23;20509;-91
2022/09/18 03:06:46;;;;;;;7.65;2.35;;;;;;;12.23;81.94;101491.31;6120841;23;20191;-92
2022/09/18 03:09:12;;;;;;;6.57;2.25;;;;;;;12.18;82.16;101480.03;6115449;23;20108;-93
2022/09/18 03:11:38;;;;;;;5.97;1.98;;;;;;;12.30;81.82;101491.94;6117367;23;20005;-92
2022/09/18 03:14:03;;;;;;;6.50;2.08;;;;;;;12.29;81.98;101486.72;6119814;23;20010;-92
2022/09/18 03:16:28;;;;;;;4.78;1.95;;;;;;;12.29;81.70;101487.56;6117018;23;20035;-93
2022/09/18 03:18:54;;;;;;;4.30;1.90;;;;;;;12.29;81.68;101487.56;6117410;23;20500;-93
2022/09/18 03:21:19;;;;;;;4.38;2.08;;;;;;;12.28;81.83;101482.34;6120337;23;20023;-93
2022/09/18 03:23:45;;;;;;;5.55;1.90;;;;;;;12.28;82.25;101477.91;6118036;23;20028;-92
2022/09/18 03:26:10;;;;;;;8.38;2.33;;;;;;;12.27;82.08;101473.53;6117203;23;20426;-92
2022/09/18 03:28:35;;;;;;;6.47;2.20;;;;;;;12.28;81.98;101475.25;6117143;23;20209;-92
2022/09/18 03:31:01;;;;;;;5.75;1.67;;;;;;;12.27;82.40;101475.31;6114603;23;20014;-91
2022/09/18 03:33:26;;;;;;;6.20;1.70;;;;;;;12.33;81.79;101488.34;6114446;23;20505;-93
2022/09/18 03:35:51;;;;;;;9.52;1.98;;;;;;;12.31;82.04;101480.44;6118712;23;20006;-92
2022/09/18 03:38:17;;;;;;;4.95;2.05;;;;;;;12.30;82.07;101468.09;6118791;23;20009;-92
2022/09/18 03:40:43;;;;;;;5.50;1.58;;;;;;;12.23;81.89;101454.22;6118377;23;20002;-91
2022/09/18 03:43:09;;;;;;;2.83;1.40;;;;;;;12.27;82.01;101468.22;6117932;23;20048;-92
2022/09/18 03:45:35;;;;;;;6.10;1.48;;;;;;;12.27;82.00;101454.09;6117213;23;20014;-92
2022/09/18 03:48:00;;;;;;;5.93;1.40;;;;;;;12.28;82.18;101456.69;6117660;23;20040;-91
2022/09/18 03:50:25;;;;;;;2.45;1.02;;;;;;;12.33;81.66;101467.13;6116704;23;20013;-91
2022/09/18 03:52:51;;;;;;;10.00;1.40;;;;;;;12.32;82.40;101466.25;6118171;23;20539;-92
2022/09/18 03:55:16;;;;;;;5.18;1.20;;;;;;;12.30;81.79;101469.88;6118197;23;20017;-94
2022/09/18 03:57:41;;;;;;;7.10;1.40;;;;;;;12.28;81.67;101458.47;6115004;23;20063;-93
2022/09/18 04:00:08;;;;;;;4.13;1.02;;;;;;;12.31;81.92;101475.16;6119248;23;20013;-92
2022/09/18 04:02:33;;;;;;;6.03;1.20;;;;;;;12.27;81.61;101459.41;6118235;23;20446;-92
2022/09/18 04:04:59;;;;;;;4.97;1.00;;;;;;;12.15;81.83;101442.16;6117454;23;20006;-93
2022/09/18 04:07:24;;;;;;;3.75;1.00;;;;;;;12.18;82.02;101456.16;6117039;23;20124;-92
2022/09/18 04:09:49;;;;;;;7.82;1.20;;;;;;;12.11;81.86;101446.69;6119597;23;20010;-92
2022/09/18 04:12:15;;;;;;;3.55;1.10;;;;;;;12.20;81.47;101462.25;6120561;23;20006;-92
2022/09/18 04:14:40;;;;;;;4.68;1.17;;;;;;;12.17;81.96;101453.56;6119872;23;20009;-91
2022/09/18 04:17:05;;;;;;;5.82;1.05;;;;;;;12.10;82.18;101444.97;6120763;23;20020;-91
2022/09/18 04:19:31;;;;;;;4.47;1.33;;;;;;;12.04;82.05;101433.75;6120261;23;20327;-92
2022/09/18 04:21:56;;;;;;;5.28;1.42;;;;;;;12.16;82.05;101455.34;6119933;23;20029;-92
2022/09/18 04:24:21;;;;;;;4.43;1.10;;;;;;;12.22;81.86;101462.22;6123110;23;20064;-92
2022/09/18 04:26:46;;;;;;;3.35;1.00;;;;;;;12.25;81.74;101464.75;6120261;23;20006;-91
2022/09/18 04:29:12;;;;;;;3.45;1.20;;;;;;;12.23;82.05;101459.50;6119589;23;20013;-92
2022/09/18 04:31:37;;;;;;;5.80;1.30;;;;;;;12.19;82.27;101454.38;6121094;23;20005;-91
2022/09/18 04:34:02;;;;;;;4.63;1.25;;;;;;;12.15;82.50;101453.63;6118456;23;20423;-91
2022/09/18 04:36:27;;;;;;;6.55;1.13;;;;;;;12.20;82.02;101472.00;6119648;23;20002;-92
2022/09/18 04:38:53;;;;;;;3.13;0.77;;;;;;;12.15;82.11;101458.06;6119673;23;20010;-92
2022/09/18 04:41:18;;;;;;;5.15;1.30;;;;;;;12.18;82.42;101469.41;6119748;23;20522;-91
2022/09/18 04:43:43;;;;;;;6.60;1.00;;;;;;;12.22;81.70;101470.19;6117482;23;20014;-92
2022/09/18 04:46:09;;;;;;;6.15;1.20;;;;;;;12.21;81.93;101465.78;6120326;23;20330;-92
2022/09/18 04:48:35;;;;;;;3.95;1.17;;;;;;;12.16;81.88;101452.69;6120190;23;20006;-91
2022/09/18 04:51:00;;;;;;;5.18;1.40;;;;;;;12.17;81.79;101449.16;6120492;23;20035;-92
2022/09/18 04:53:27;;;;;;;3.42;0.90;;;;;;;12.19;81.88;101457.88;6119416;23;20006;-91
2022/09/18 04:55:52;;;;;;;6.85;1.20;;;;;;;12.13;81.86;101450.16;6117067;23;20012;-91
2022/09/18 04:58:19;;;;;;;6.35;1.08;;;;;;;12.17;81.96;101461.50;6120799;23;20526;-91
2022/09/18 05:00:48;;;;;;;6.30;1.00;;;;;;;12.12;81.75;101453.72;6117187;23;20013;-90
2022/09/18 05:03:13;;;;;;;3.97;1.17;;;;;;;12.11;81.58;101454.66;6119829;23;20360;-92
2022/09/18 05:05:39;;;;;;;1.20;1.00;;;;;;;12.08;82.18;101452.13;6117457;23;20020;-91
2022/09/18 05:08:05;;;;;;;4.88;1.02;;;;;;;12.08;82.11;101451.28;6119178;23;20080;-91
2022/09/18 05:10:30;;;;;;;5.80;1.20;;;;;;;12.09;81.68;101453.84;6116858;23;20485;-92
2022/09/18 05:12:55;;;;;;;5.00;1.00;;;;;;;12.07;81.73;101460.13;6118269;23;20010;-92
2022/09/18 05:15:21;;;;;;;4.03;1.40;;;;;;;12.09;81.83;101453.00;6116761;23;20497;-93
2022/09/18 05:17:47;;;;;;;3.53;0.90;;;;;;;12.09;81.69;101453.84;6118893;23;20445;-92
2022/09/18 05:20:13;;;;;;;4.10;1.13;;;;;;;12.12;82.17;101472.28;6117844;23;20436;-93
2022/09/18 05:22:42;;;;;;;5.05;1.50;;;;;;;12.12;82.06;101468.75;6120359;23;20009;-91
2022/09/18 05:25:08;;;;;;;6.65;1.10;;;;;;;12.04;82.54;101449.66;6118890;23;20022;-91
2022/09/18 05:27:33;;;;;;;7.63;0.93;;;;;;;12.05;81.98;101462.84;6118580;23;20033;-92
2022/09/18 05:29:58;;;;;;;5.20;1.10;;;;;;;11.99;82.16;101461.28;6118008;23;20445;-93
2022/09/18 05:32:24;;;;;;;6.03;1.05;;;;;;;12.05;82.12;101481.38;6119403;23;20013;-92
2022/09/18 05:34:49;;;;;;;5.43;0.90;;;;;;;12.05;82.43;101465.47;6119781;23;20096;-91
2022/09/18 05:37:18;;;;;;;4.65;1.10;;;;;;;12.09;81.58;101471.53;6121488;23;20006;-92
2022/09/18 05:39:43;;;;;;;6.65;1.08;;;;;;;12.05;81.89;101470.78;6120804;23;20002;-91
2022/09/18 05:42:09;;;;;;;4.40;0.90;;;;;;;12.07;82.02;101466.28;6118432;23;20009;-92
2022/09/18 05:44:34;;;;;;;6.68;1.20;;;;;;;12.04;81.68;101469.06;6117878;23;20338;-92
2022/09/18 05:47:00;;;;;;;3.30;0.90;;;;;;;12.08;81.78;101465.38;6120292;23;20002;-92
2022/09/18 05:49:26;;;;;;;3.08;0.82;;;;;;;12.07;81.63;101466.28;6119360;23;20010;-93
2022/09/18 05:51:53;;;;;;;6.20;1.23;;;;;;;12.04;81.89;101453.16;6117213;23;20430;-92
2022/09/18 05:54:18;;;;;;;3.33;0.85;;;;;;;12.14;82.05;101464.28;6118366;23;20006;-92
2022/09/18 05:56:43;;;;;;;4.10;0.80;;;;;;;12.17;81.47;101457.09;6116505;23;20089;-91
2022/09/18 05:59:09;;;;;;;6.63;1.20;;;;;;;12.17;81.86;101462.41;6118536;23;20089;-92
2022/09/18 06:01:34;;;;;;;6.88;1.10;;;;;;;12.23;81.32;101467.47;6117333;23;20080;-92
2022/09/18 06:04:01;;;;;;;3.47;1.27;;;;;;;12.28;81.74;101475.25;6119223;23;20021;-91
2022/09/18 06:06:27;;;;;;;2.80;0.80;;;;;;;12.25;81.75;101464.75;6120812;23;20486;-92
2022/09/18 06:08:53;;;;;;;2.13;0.73;;;;;;;12.23;81.54;101462.16;6116790;23;20343;-92
2022/09/18 06:11:18;;;;;;;10.32;1.10;;;;;;;12.35;80.85;101476.72;6119264;23;20006;-92
2022/09/18 06:13:47;;;;;;;5.00;0.90;;;;;;;12.25;81.09;101441.75;6117129;23;20010;-92
2022/09/18 06:16:13;;;;;;;3.67;1.27;;;;;;;12.40;81.07;101463.31;6116662;23;20001;-92
2022/09/18 06:18:38;;;;;;;4.22;1.02;;;;;;;12.40;80.64;101456.25;6118114;23;20012;-92
2022/09/18 06:21:04;;;;;;;6.70;1.00;;;;;;;12.50;80.87;101462.06;6116727;23;20012;-93
2022/09/18 06:23:29;;;;;;;2.97;0.82;;;;;;;12.54;80.67;101455.69;6118770;23;20439;-92
2022/09/18 06:25:56;;;;;;;5.22;0.80;;;;;;;12.62;80.32;101460.69;6118200;23;20065;-91
2022/09/18 06:28:22;;;;;;;3.88;1.05;;;;;;;12.68;80.53;101444.53;6118599;23;20145;-93
2022/09/18 06:30:47;;;;;;;1.20;0.80;;;;;;;12.84;80.16;101458.94;6119822;23;20325;-93
2022/09/18 06:33:12;;;;;;;5.45;0.90;;;;;;;12.91;79.77;101456.91;6116923;23;20010;-93
2022/09/18 06:35:38;;;;;;;4.88;1.08;;;;;;;12.91;79.80;101451.59;6117821;23;20010;-92
2022/09/18 06:38:05;;;;;;;9.15;1.10;;;;;;;12.98;80.12;101458.41;6119417;23;20010;-92
2022/09/18 06:40:32;;;;;;;4.25;1.50;;;;;;;12.96;80.07;101449.59;6119813;23;20006;-92
2022/09/18 06:42:58;;;;;;;6.18;1.70;;;;;;;13.05;80.13;101462.50;6119924;23;20013;-92
2022/09/18 06:45:25;;;;;;;4.00;1.30;;;;;;;13.14;80.43;101458.63;6118534;23;20537;-91
2022/09/18 06:47:54;;;;;;;5.05;1.77;;;;;;;13.09;79.92;101445.53;6118966;23;20077;-92
2022/09/18 06:50:23;;;;;;;6.15;1.30;;;;;;;13.14;79.45;101462.13;6117997;23;20423;-92
2022/09/18 06:52:49;;;;;;;6.22;1.48;;;;;;;13.20;79.90;101466.34;6118342;23;20324;-92
2022/09/18 06:55:16;;;;;;;4.03;1.35;;;;;;;13.10;79.38;101457.88;6120812;23;20414;-92
2022/09/18 06:57:41;;;;;;;3.08;1.38;;;;;;;13.11;79.55;101459.63;6115410;23;20018;-92
2022/09/18 07:00:08;;;;;;;5.22;1.42;;;;;;;13.16;79.65;101460.31;6117273;23;20002;-92
2022/09/18 07:02:34;;;;;;;4.65;1.45;;;;;;;13.11;79.96;101454.31;6118149;23;20010;-92
2022/09/18 07:04:59;;;;;;;5.50;1.50;;;;;;;13.11;79.83;101451.66;6117714;23;20449;-92
2022/09/18 07:07:25;;;;;;;6.93;1.67;;;;;;;13.30;80.49;101464.22;6118221;23;20057;-91
2022/09/18 07:09:50;;;;;;;5.65;2.10;;;;;;;13.34;79.75;101457.84;6116732;23;20775;-92
2022/09/18 07:12:16;;;;;;;8.30;2.03;;;;;;;13.37;78.39;101455.91;6116829;23;20006;-93
2022/09/18 07:14:41;;;;;;;2.58;1.70;;;;;;;13.29;78.84;101434.16;6118262;23;20016;-92
2022/09/18 07:17:12;;;;;;;8.43;1.70;;;;;;;13.46;79.10;101462.63;6117057;23;20006;-92
2022/09/18 07:19:37;;;;;;;4.85;1.50;;;;;;;13.47;78.74;101451.06;6115692;23;20318;-93
2022/09/18 07:22:03;;;;;;;4.53;1.48;;;;;;;13.43;78.30;101442.41;6117759;23;20474;-92
2022/09/18 07:24:28;;;;;;;4.55;1.77;;;;;;;13.45;78.26;101439.66;6117212;23;20009;-92
2022/09/18 07:26:54;;;;;;;8.77;1.70;;;;;;;13.45;78.59;101435.22;6114878;23;20537;-93
2022/09/18 07:29:20;;;;;;;3.10;1.38;;;;;;;13.49;78.65;101452.75;6117189;23;20020;-92
2022/09/18 07:31:46;;;;;;;8.00;1.80;;;;;;;13.54;79.50;101463.19;6118707;23;20009;-92
2022/09/18 07:34:11;;;;;;;3.67;1.50;;;;;;;13.43;78.75;101447.72;6116472;23;20005;-92
2022/09/18 07:36:37;;;;;;;4.15;1.40;;;;;;;13.40;78.62;101442.50;6113898;23;20226;-93
2022/09/18 07:39:03;;;;;;;5.88;1.67;;;;;;;13.30;79.31;101433.22;6117790;23;20480;-92
2022/09/18 07:41:28;;;;;;;4.25;1.92;;;;;;;13.39;79.61;101443.44;6116736;23;20037;-94
2022/09/18 07:43:53;;;;;;;5.38;1.80;;;;;;;13.44;80.00;101443.25;6118549;23;20013;-94
2022/09/18 07:46:19;;;;;;;4.50;1.83;;;;;;;13.55;79.79;101442.78;6117487;23;20433;-92
2022/09/18 07:48:44;;;;;;;3.72;1.70;;;;;;;13.76;79.48;101436.56;6117248;23;20438;-92
2022/09/18 07:51:09;;;;;;;5.85;1.80;;;;;;;14.05;78.84;101432.59;6117374;23;20429;-93
2022/09/18 07:53:36;;;;;;;5.55;1.98;;;;;;;14.11;78.51;101439.44;6117846;23;20449;-93
2022/09/18 07:56:08;;;;;;;8.43;2.08;;;;;;;14.15;78.40;101425.91;6117513;23;20335;-92
2022/09/18 07:58:34;;;;;;;4.13;2.05;;;;;;;14.30;77.96;101433.19;6118061;23;20338;-92
2022/09/18 08:01:01;;;;;;;7.97;1.98;;;;;;;14.50;76.55;101436.75;6118000;23;20493;-90
2022/09/18 08:03:27;;;;;;;5.32;2.00;;;;;;;14.72;76.31;101415.31;6121144;23;20426;-91
2022/09/18 08:05:53;;;;;;;8.02;2.38;;;;;;;15.01;74.73;101433.41;6116529;23;20238;-90
2022/09/18 08:08:18;;;;;;;4.10;2.00;;;;;;;15.29;75.18;101427.56;6120220;23;20041;-91
2022/09/18 08:10:44;;;;;;;3.75;1.70;;;;;;;15.49;74.69;101431.00;6119020;23;20350;-91
2022/09/18 08:13:10;;;;;;;6.32;2.45;;;;;;;15.52;74.46;101418.38;6121198;23;20037;-91
2022/09/18 08:15:37;;;;;;;5.80;1.70;;;;;;;15.60;72.93;101441.13;6118879;23;20068;-91
2022/09/18 08:18:03;;;;;;;2.88;1.38;;;;;;;15.38;73.96;101442.19;6114458;23;20452;-90
2022/09/18 08:20:29;;;;;;;10.82;1.90;;;;;;;15.17;74.05;101443.28;6116374;23;20001;-92
2022/09/18 08:22:54;;;;;;;4.63;1.50;;;;;;;14.96;74.33;101442.53;6120282;23;20528;-91
2022/09/18 08:25:20;;;;;;;3.80;1.65;;;;;;;14.78;75.51;101444.28;6118031;23;20010;-92
2022/09/18 08:27:45;;;;;;;4.78;1.50;;;;;;;14.82;75.43;101437.88;6119380;23;20105;-93
2022/09/18 08:30:13;;;;;;;6.30;1.70;;;;;;;14.83;75.84;101444.06;6124346;23;20012;-92
2022/09/18 08:32:38;;;;;;;5.70;1.80;;;;;;;14.89;76.90;101443.78;6123066;23;20009;-92
2022/09/18 08:35:04;;;;;;;6.38;1.92;;;;;;;14.75;76.54;101423.16;6120447;23;20104;-92
2022/09/18 08:37:30;;;;;;;6.35;2.03;;;;;;;14.88;76.73;101440.25;6121066;23;20425;-93
2022/09/18 08:39:56;;;;;;;5.10;2.03;;;;;;;14.83;76.38;101446.72;6119888;23;20009;-94
2022/09/18 08:43:00;;;;;;;4.30;1.83;;;;;;;14.92;76.10;101446.28;6120956;23;20010;-93
2022/09/18 08:45:34;;;;;;;6.32;1.50;;;;;;;14.90;76.14;101446.34;6115221;23;20016;-93
2022/09/18 08:48:08;;;;;;;4.75;1.52;;;;;;;14.94;75.04;101437.28;6117621;23;20314;-93
2022/09/18 08:50:39;;;;;;;4.82;1.70;;;;;;;14.90;75.09;101440.19;6118686;23;20060;-92
2022/09/18 08:53:15;;;;;;;2.88;1.10;;;;;;;14.95;74.54;101433.69;6118531;23;20006;-90
2022/09/18 08:55:44;;;;;;;3.72;0.93;;;;;;;14.96;74.52;101432.75;6118116;23;20013;-91
2022/09/18 08:58:21;;;;;;;2.10;1.00;;;;;;;15.01;74.07;101445.81;6117360;23;20427;-91
2022/09/18 09:00:51;;;;;;;4.32;1.23;;;;;;;14.88;75.27;101442.06;6116543;23;20427;-90
2022/09/18 09:03:27;;;;;;;4.60;1.13;;;;;;;14.85;74.82;101436.88;6120049;23;20162;-91
2022/09/18 09:06:00;;;;;;;4.50;1.17;;;;;;;14.96;74.51;101447.84;6117791;23;20002;-90
2022/09/18 09:08:56;;;;;;;1.58;0.73;;;;;;;15.00;74.01;101452.09;6118328;23;20016;-91
2022/09/18 09:11:43;;;;;;;3.75;1.08;;;;;;;15.05;74.26;101444.75;6120615;23;20441;-91
2022/09/18 09:14:23;;;;;;;2.63;1.23;;;;;;;15.10;73.31;101444.50;6120993;23;20036;-91
2022/09/18 09:16:54;;;;;;;3.78;1.35;;;;;;;15.19;72.68;101428.09;6117186;23;20065;-91
2022/09/18 09:19:50;;;;;;;6.35;1.60;;;;;;;15.48;73.13;101450.59;6116882;23;20045;-91
2022/09/18 09:22:18;;;;;;;4.22;1.30;;;;;;;15.47;73.11;101448.88;6119553;23;20040;-90
2022/09/18 09:24:55;;;;;;;2.50;1.35;;;;;;;15.48;74.20;101450.59;6120449;23;20037;-89
2022/09/18 09:27:33;;;;;;;3.08;1.25;;;;;;;15.41;73.73;101451.84;6119397;23;20046;-90
2022/09/18 09:30:02;;;;;;;4.30;1.48;;;;;;;15.39;73.29;101454.59;6124974;23;20164;-94
2022/09/18 09:32:41;;;;;;;5.30;1.60;;;;;;;15.37;73.43;101444.94;6122358;23;20013;-93
2022/09/18 09:35:25;;;;;;;4.10;1.17;;;;;;;15.27;73.93;101450.75;6119997;23;20084;-94
2022/09/18 09:37:52;;;;;;;2.05;1.30;;;;;;;15.19;74.58;101439.59;6123704;23;20006;-89
2022/09/18 09:40:32;;;;;;;2.63;1.20;;;;;;;15.09;75.00;101441.00;6119369;23;20016;-90
2022/09/18 09:43:04;;;;;;;2.92;1.88;;;;;;;15.18;74.56;101443.19;6118327;23;20001;-91
2022/09/18 09:45:43;;;;;;;3.25;1.30;;;;;;;15.24;73.60;101442.88;6118957;23;20052;-90
2022/09/18 09:48:23;;;;;;;2.60;1.05;;;;;;;15.30;73.96;101449.75;6120870;23;20426;-90
2022/09/18 09:50:55;;;;;;;4.57;1.50;;;;;;;15.38;73.23;101441.34;6120242;23;20005;-90
2022/09/18 09:53:24;;;;;;;4.30;1.00;;;;;;;15.38;72.69;101431.53;6120128;23;20010;-91
2022/09/18 09:56:17;;;;;;;2.40;0.80;;;;;;;15.48;71.94;101434.59;6119762;23;20006;-91
2022/09/18 09:59:04;;;;;;;3.63;1.08;;;;;;;15.53;71.67;101420.13;6121053;23;20013;-91
2022/09/18 10:01:44;;;;;;;4.22;1.17;;;;;;;15.53;73.03;101408.59;6119802;23;20300;-90
2022/09/18 10:04:51;;;;;;;3.42;1.20;;;;;;;15.73;73.05;101412.91;6120848;23;20320;-91
2022/09/18 10:07:41;;;;;;;4.28;0.70;;;;;;;15.84;71.45;101413.19;6122183;23;20009;-90
2022/09/18 10:10:31;;;;;;;5.47;1.05;;;;;;;15.95;71.65;101405.50;6120070;23;20005;-90
2022/09/18 10:13:28;;;;;;;3.13;1.23;;;;;;;15.88;70.60;101403.25;6120054;23;20005;-90
2022/09/18 10:16:09;;;;;;;5.68;1.17;;;;;;;15.89;70.62;101408.47;6097471;23;20037;-90
2022/09/18 10:18:40;;;;;;;1.70;0.88;;;;;;;15.81;71.57;101408.06;6121691;23;20500;-91
2022/09/18 10:21:13;;;;;;;3.13;1.00;;;;;;;16.07;70.43;101402.16;6121592;23;20002;-90
2022/09/18 10:23:41;;;;;;;6.10;1.13;;;;;;;16.24;69.71;101393.25;6119486;23;20140;-90
2022/09/18 10:26:13;;;;;;;6.20;0.98;;;;;;;16.43;67.59;101390.41;6120925;23;20006;-90
2022/09/18 10:28:38;;;;;;;2.85;0.90;;;;;;;16.65;67.78;101399.91;6119312;23;20456;-90
2022/09/18 10:31:05;;;;;;;5.47;1.17;;;;;;;16.85;68.11;101407.66;6121283;23;20009;-91
2022/09/18 10:33:43;;;;;;;5.80;1.25;;;;;;;16.79;67.91;101413.38;6119157;23;20473;-90
2022/09/18 10:36:41;;;;;;;4.32;1.33;;;;;;;16.72;68.10;101418.19;6121385;23;20037;-90
2022/09/18 10:39:23;;;;;;;2.50;1.30;;;;;;;16.72;68.74;101406.63;6118678;23;20006;-90
2022/09/18 10:41:49;;;;;;;4.25;1.42;;;;;;;16.76;67.92;101397.50;6119637;23;20002;-90
2022/09/18 10:44:14;;;;;;;7.82;1.70;;;;;;;16.74;68.81;101415.41;6119366;23;20485;-90
2022/09/18 10:47:24;;;;;;;4.67;1.67;;;;;;;16.72;67.75;101401.28;6121490;23;20051;-91
2022/09/18 10:50:15;;;;;;;3.88;1.27;;;;;;;16.50;66.96;101406.94;6059299;23;20345;-90
2022/09/18 10:52:52;;;;;;;3.22;1.25;;;;;;;16.31;67.61;101407.09;6115987;23;20048;-91
2022/09/18 10:55:22;;;;;;;2.75;1.23;;;;;;;16.07;68.58;101385.28;6119625;23;20501;-91
2022/09/18 10:57:47;;;;;;;3.83;1.23;;;;;;;16.06;68.92;101413.78;6118431;23;20266;-90
2022/09/18 11:00:18;;;;;;;4.13;1.50;;;;;;;15.93;72.58;101395.84;6119295;23;20375;-90
2022/09/18 11:02:47;;;;;;;4.65;1.52;;;;;;;15.80;72.50;101412.50;6119040;23;20304;-90
2022/09/18 11:05:31;;;;;;;4.38;1.27;;;;;;;15.63;72.24;101432.97;6118994;23;20009;-90
2022/09/18 11:07:59;;;;;;;2.97;0.50;;;;;;;15.29;69.80;101440.88;6118711;23;20105;-92
2022/09/18 11:10:26;;;;;;;3.55;0.98;;;;;;;15.06;71.57;101438.47;6119120;23;20009;-91
2022/09/18 11:12:57;;;;;;;0.40;0.40;;;;;;;14.89;70.71;101423.34;6120334;23;20013;-91
2022/09/18 11:15:26;;;;;;;5.03;0.77;;;;;;;14.76;70.69;101428.38;6121240;23;20009;-91
2022/09/18 11:17:54;;;;;;;1.50;0.47;;;;;;;14.61;69.51;101407.84;6119273;23;20013;-91
2022/09/18 11:20:25;;;;;;;4.78;0.55;;;;;;;14.50;70.81;101416.34;6119136;23;20006;-91
2022/09/18 11:22:52;;;;;;;0.88;0.40;;;;;;;14.52;72.66;101427.75;6118484;23;20006;-91
2022/09/18 11:25:23;;;;;;;2.45;0.50;;;;;;;14.43;71.91;101425.50;6120366;23;20002;-91
2022/09/18 11:27:52;;;;;;;4.13;0.60;;;;;;;14.36;73.10;101434.72;6117967;23;20077;-91
2022/09/18 11:30:25;;;;;;;2.60;0.60;;;;;;;14.35;72.65;101434.78;6119275;23;20382;-90
2022/09/18 11:33:10;;;;;;;2.92;0.60;;;;;;;14.34;73.08;101428.59;6119464;23;20122;-91
2022/09/18 11:35:44;;;;;;;3.30;0.60;;;;;;;14.41;73.74;101430.06;6119646;23;20040;-91
2022/09/18 11:38:13;;;;;;;2.40;0.70;;;;;;;14.57;72.80;101437.34;6118614;23;20335;-90
2022/09/18 11:40:50;;;;;;;9.25;0.93;;;;;;;14.70;73.63;101425.19;6117666;23;20010;-90